SWA4091 KSFO-KLAS
Flight info
| Callsign | SWA4091 |
|---|---|
| Flight time | 1h 10m |
| Altitude | 35000 |
| Route | WESLA5 NTELL Q174 FLCHR COKTL4 |
| Aircraft | B738/M-SDE2E3FGHIRWXY/LB1 |
Departure
| Time | 2026-05-05 01:37 |
|---|---|
| Airport | San Francisco International Airport (KSFO) |
Arrival
| Time | 2026-05-05 02:47 |
|---|---|
| Airport | Harry Reid International Airport (KLAS) |
| Time | Latitude | Longitude | Altitude | Speed | Heading |
|---|---|---|---|---|---|
| 2026-05-05 01:07 | 37.61678 | -122.38168 | 22 ft | 0 kts | 13° |
| 2026-05-05 01:25 | 37.61674 | -122.38169 | 21 ft | 3 kts | 13° |
| 2026-05-05 01:25 | 37.61649 | -122.38176 | 21 ft | 4 kts | 19° |
| 2026-05-05 01:25 | 37.61628 | -122.38192 | 21 ft | 4 kts | 65° |
| 2026-05-05 01:26 | 37.61625 | -122.38217 | 21 ft | 1 kts | 104° |
| 2026-05-05 01:26 | 37.61626 | -122.38222 | 21 ft | 0 kts | 104° |
| 2026-05-05 01:28 | 37.61626 | -122.38219 | 21 ft | 1 kts | 104° |
| 2026-05-05 01:29 | 37.61618 | -122.38182 | 23 ft | 8 kts | 109° |
| 2026-05-05 01:29 | 37.61592 | -122.38111 | 21 ft | 9 kts | 116° |
| 2026-05-05 01:29 | 37.61549 | -122.38054 | 23 ft | 10 kts | 167° |
| 2026-05-05 01:29 | 37.61480 | -122.38085 | 22 ft | 12 kts | 207° |
| 2026-05-05 01:30 | 37.61402 | -122.38080 | 22 ft | 13 kts | 125° |
| 2026-05-05 01:30 | 37.61359 | -122.37980 | 21 ft | 13 kts | 118° |
| 2026-05-05 01:30 | 37.61317 | -122.37882 | 21 ft | 13 kts | 118° |
| 2026-05-05 01:30 | 37.61273 | -122.37776 | 22 ft | 15 kts | 118° |
| 2026-05-05 01:31 | 37.61229 | -122.37640 | 21 ft | 18 kts | 95° |
| 2026-05-05 01:31 | 37.61280 | -122.37487 | 23 ft | 20 kts | 39° |
| 2026-05-05 01:31 | 37.61400 | -122.37406 | 22 ft | 20 kts | 27° |
| 2026-05-05 01:31 | 37.61517 | -122.37319 | 22 ft | 19 kts | 43° |
| 2026-05-05 01:32 | 37.61562 | -122.37173 | 21 ft | 18 kts | 95° |
| 2026-05-05 01:32 | 37.61515 | -122.37019 | 21 ft | 20 kts | 117° |
| 2026-05-05 01:32 | 37.61429 | -122.36870 | 21 ft | 22 kts | 132° |
| 2026-05-05 01:32 | 37.61334 | -122.36706 | 24 ft | 24 kts | 118° |
| 2026-05-05 01:33 | 37.61257 | -122.36523 | 21 ft | 23 kts | 117° |
| 2026-05-05 01:33 | 37.61185 | -122.36347 | 21 ft | 22 kts | 117° |
| 2026-05-05 01:33 | 37.61115 | -122.36178 | 23 ft | 20 kts | 117° |
| 2026-05-05 01:33 | 37.61058 | -122.36046 | 23 ft | 10 kts | 113° |
| 2026-05-05 01:34 | 37.61054 | -122.35968 | 21 ft | 8 kts | 76° |
| 2026-05-05 01:34 | 37.61086 | -122.35914 | 21 ft | 5 kts | 33° |
| 2026-05-05 01:34 | 37.61088 | -122.35913 | 21 ft | 0 kts | 32° |
| 2026-05-05 01:35 | 37.61089 | -122.35912 | 21 ft | 0 kts | 32° |
| 2026-05-05 01:35 | 37.61101 | -122.35903 | 21 ft | 5 kts | 30° |
| 2026-05-05 01:36 | 37.61150 | -122.35869 | 21 ft | 11 kts | 22° |
| 2026-05-05 01:36 | 37.61222 | -122.35959 | 21 ft | 26 kts | 297° |
| 2026-05-05 01:36 | 37.61438 | -122.36498 | 21 ft | 111 kts | 296° |
| 2026-05-05 01:36 | 37.61915 | -122.37601 | 185 ft | 165 kts | 300° |
| 2026-05-05 01:37 | 37.62436 | -122.38878 | 1291 ft | 157 kts | 293° |
| 2026-05-05 01:37 | 37.62894 | -122.40043 | 2586 ft | 142 kts | 297° |
| 2026-05-05 01:37 | 37.63415 | -122.41213 | 3176 ft | 174 kts | 298° |
| 2026-05-05 01:37 | 37.64084 | -122.42729 | 3240 ft | 219 kts | 297° |
| 2026-05-05 01:38 | 37.64844 | -122.44442 | 3219 ft | 224 kts | 298° |
| 2026-05-05 01:38 | 37.65614 | -122.46175 | 3202 ft | 229 kts | 298° |
| 2026-05-05 01:38 | 37.66392 | -122.47925 | 3215 ft | 233 kts | 297° |
| 2026-05-05 01:38 | 37.66869 | -122.49801 | 3231 ft | 244 kts | 271° |
| 2026-05-05 01:39 | 37.66460 | -122.51883 | 3226 ft | 250 kts | 240° |
| 2026-05-05 01:39 | 37.65247 | -122.53451 | 3220 ft | 255 kts | 212° |
| 2026-05-05 01:39 | 37.63547 | -122.54064 | 3233 ft | 260 kts | 182° |
| 2026-05-05 01:39 | 37.61739 | -122.53677 | 3238 ft | 263 kts | 164° |
| 2026-05-05 01:40 | 37.60043 | -122.52866 | 3237 ft | 265 kts | 160° |
| 2026-05-05 01:40 | 37.58336 | -122.51987 | 3222 ft | 265 kts | 160° |
| 2026-05-05 01:40 | 37.56612 | -122.51153 | 3229 ft | 266 kts | 162° |
| 2026-05-05 01:40 | 37.54921 | -122.50325 | 3236 ft | 268 kts | 160° |
| 2026-05-05 01:41 | 37.53180 | -122.49470 | 3231 ft | 269 kts | 161° |
| 2026-05-05 01:41 | 37.51428 | -122.48625 | 3437 ft | 270 kts | 161° |
| 2026-05-05 01:41 | 37.49890 | -122.47321 | 4539 ft | 266 kts | 127° |
| 2026-05-05 01:41 | 37.49127 | -122.45266 | 6078 ft | 255 kts | 110° |
| 2026-05-05 01:42 | 37.48613 | -122.43107 | 7173 ft | 261 kts | 106° |
| 2026-05-05 01:42 | 37.48131 | -122.40872 | 8137 ft | 270 kts | 105° |
| 2026-05-05 01:42 | 37.47626 | -122.38556 | 9073 ft | 278 kts | 103° |
| 2026-05-05 01:42 | 37.47123 | -122.36156 | 10020 ft | 286 kts | 103° |
| 2026-05-05 01:43 | 37.46615 | -122.33741 | 10812 ft | 296 kts | 103° |
| 2026-05-05 01:43 | 37.46063 | -122.31116 | 11093 ft | 325 kts | 103° |
| 2026-05-05 01:43 | 37.45454 | -122.28253 | 11427 ft | 349 kts | 102° |
| 2026-05-05 01:43 | 37.44808 | -122.25267 | 12204 ft | 356 kts | 103° |
| 2026-05-05 01:44 | 37.44146 | -122.22250 | 13202 ft | 357 kts | 103° |
| 2026-05-05 01:44 | 37.43479 | -122.19228 | 14113 ft | 361 kts | 103° |
| 2026-05-05 01:44 | 37.42802 | -122.16168 | 14924 ft | 364 kts | 103° |
| 2026-05-05 01:44 | 37.42120 | -122.13089 | 15789 ft | 366 kts | 103° |
| 2026-05-05 01:45 | 37.41433 | -122.09993 | 16608 ft | 369 kts | 103° |
| 2026-05-05 01:45 | 37.40740 | -122.06871 | 17436 ft | 372 kts | 103° |
| 2026-05-05 01:45 | 37.40052 | -122.03780 | 18324 ft | 372 kts | 103° |
| 2026-05-05 01:45 | 37.39350 | -122.00627 | 18851 ft | 377 kts | 103° |
| 2026-05-05 01:46 | 37.38631 | -121.97403 | 19043 ft | 379 kts | 103° |
| 2026-05-05 01:46 | 37.37930 | -121.94261 | 19039 ft | 378 kts | 103° |
| 2026-05-05 01:46 | 37.37217 | -121.91072 | 19093 ft | 382 kts | 103° |
| 2026-05-05 01:46 | 37.36495 | -121.87846 | 19649 ft | 385 kts | 103° |
| 2026-05-05 01:47 | 37.35769 | -121.84612 | 20455 ft | 384 kts | 103° |
| 2026-05-05 01:47 | 37.35043 | -121.81382 | 21215 ft | 384 kts | 103° |
| 2026-05-05 01:47 | 37.34314 | -121.78137 | 21888 ft | 387 kts | 103° |
| 2026-05-05 01:47 | 37.33579 | -121.74872 | 22578 ft | 390 kts | 103° |
| 2026-05-05 01:48 | 37.32836 | -121.71579 | 23201 ft | 393 kts | 102° |
| 2026-05-05 01:48 | 37.32090 | -121.68269 | 23789 ft | 395 kts | 102° |
| 2026-05-05 01:48 | 37.31337 | -121.64940 | 24323 ft | 396 kts | 102° |
| 2026-05-05 01:48 | 37.30582 | -121.61605 | 24849 ft | 398 kts | 102° |
| 2026-05-05 01:49 | 37.29821 | -121.58253 | 25360 ft | 400 kts | 102° |
| 2026-05-05 01:49 | 37.29056 | -121.54885 | 25881 ft | 401 kts | 102° |
| 2026-05-05 01:49 | 37.28289 | -121.51511 | 26391 ft | 403 kts | 103° |
| 2026-05-05 01:49 | 37.27514 | -121.48109 | 26815 ft | 407 kts | 102° |
| 2026-05-05 01:50 | 37.26731 | -121.44676 | 27252 ft | 410 kts | 102° |
| 2026-05-05 01:50 | 37.25955 | -121.41280 | 27694 ft | 412 kts | 102° |
| 2026-05-05 01:50 | 37.25151 | -121.37768 | 28144 ft | 414 kts | 102° |
| 2026-05-05 01:50 | 37.24367 | -121.34351 | 28788 ft | 411 kts | 102° |
| 2026-05-05 01:51 | 37.23678 | -121.30895 | 29516 ft | 404 kts | 96° |
| 2026-05-05 01:51 | 37.23436 | -121.27413 | 30155 ft | 398 kts | 87° |
| 2026-05-05 01:51 | 37.23540 | -121.23937 | 30499 ft | 401 kts | 86° |
| 2026-05-05 01:51 | 37.23659 | -121.20418 | 30697 ft | 407 kts | 86° |
| 2026-05-05 01:52 | 37.23771 | -121.16849 | 30960 ft | 411 kts | 86° |
| 2026-05-05 01:52 | 37.23877 | -121.13236 | 31002 ft | 417 kts | 86° |
| 2026-05-05 01:52 | 37.24071 | -121.06008 | 31002 ft | 412 kts | 86° |
| 2026-05-05 01:53 | 37.24250 | -120.98854 | 31020 ft | 410 kts | 86° |
| 2026-05-05 01:53 | 37.24426 | -120.91691 | 31015 ft | 414 kts | 87° |
| 2026-05-05 01:54 | 37.24570 | -120.85621 | 31020 ft | 417 kts | 87° |
| 2026-05-05 01:54 | 37.24740 | -120.78357 | 31016 ft | 420 kts | 87° |
| 2026-05-05 01:55 | 37.24906 | -120.71013 | 31009 ft | 421 kts | 87° |
| 2026-05-05 01:55 | 37.25069 | -120.63641 | 31009 ft | 422 kts | 87° |
| 2026-05-05 01:56 | 37.25226 | -120.56341 | 31008 ft | 420 kts | 87° |
| 2026-05-05 01:56 | 37.25378 | -120.49027 | 31010 ft | 418 kts | 87° |
| 2026-05-05 01:57 | 37.25525 | -120.41755 | 31012 ft | 416 kts | 88° |
| 2026-05-05 01:57 | 37.25668 | -120.34511 | 31009 ft | 414 kts | 88° |
| 2026-05-05 01:58 | 37.25805 | -120.27301 | 31016 ft | 412 kts | 88° |
| 2026-05-05 01:58 | 37.25938 | -120.20097 | 31017 ft | 412 kts | 88° |
| 2026-05-05 01:59 | 37.26066 | -120.12896 | 31035 ft | 423 kts | 88° |
| 2026-05-05 01:59 | 37.26194 | -120.05494 | 31009 ft | 419 kts | 88° |
| 2026-05-05 02:00 | 37.26313 | -119.98241 | 31015 ft | 415 kts | 88° |
| 2026-05-05 02:00 | 37.26429 | -119.90978 | 31014 ft | 417 kts | 88° |
| 2026-05-05 02:01 | 37.26542 | -119.83685 | 31009 ft | 418 kts | 88° |
| 2026-05-05 02:01 | 37.26650 | -119.76383 | 31004 ft | 419 kts | 88° |
| 2026-05-05 02:02 | 37.26752 | -119.69120 | 31004 ft | 418 kts | 88° |
| 2026-05-05 02:02 | 37.26852 | -119.61811 | 31004 ft | 418 kts | 88° |
| 2026-05-05 02:03 | 37.26945 | -119.54560 | 30996 ft | 417 kts | 88° |
| 2026-05-05 02:03 | 37.27034 | -119.47274 | 30975 ft | 418 kts | 88° |
| 2026-05-05 02:04 | 37.27119 | -119.39965 | 30987 ft | 420 kts | 88° |
| 2026-05-05 02:04 | 37.27201 | -119.32606 | 30985 ft | 424 kts | 88° |
| 2026-05-05 02:05 | 37.27279 | -119.25168 | 30985 ft | 427 kts | 88° |
| 2026-05-05 02:05 | 37.27353 | -119.17665 | 30971 ft | 432 kts | 89° |
| 2026-05-05 02:06 | 37.27422 | -119.10089 | 30964 ft | 436 kts | 89° |
| 2026-05-05 02:06 | 37.27487 | -119.02451 | 30955 ft | 438 kts | 89° |
| 2026-05-05 02:07 | 37.27547 | -118.94831 | 30913 ft | 440 kts | 89° |
| 2026-05-05 02:07 | 37.27603 | -118.87150 | 30909 ft | 440 kts | 89° |
| 2026-05-05 02:08 | 37.27655 | -118.79459 | 30919 ft | 440 kts | 89° |
| 2026-05-05 02:08 | 37.27708 | -118.71762 | 30871 ft | 441 kts | 88° |
| 2026-05-05 02:09 | 37.28169 | -118.64088 | 30843 ft | 441 kts | 83° |
| 2026-05-05 02:09 | 37.28835 | -118.56425 | 30862 ft | 442 kts | 83° |
| 2026-05-05 02:10 | 37.29471 | -118.48741 | 30868 ft | 443 kts | 84° |
| 2026-05-05 02:10 | 37.30074 | -118.40913 | 30885 ft | 458 kts | 85° |
| 2026-05-05 02:11 | 37.30669 | -118.32926 | 30868 ft | 466 kts | 86° |
| 2026-05-05 02:11 | 37.31270 | -118.24774 | 30881 ft | 472 kts | 86° |
| 2026-05-05 02:12 | 37.32164 | -118.12565 | 30825 ft | 463 kts | 86° |
| 2026-05-05 02:13 | 37.32748 | -118.04479 | 30724 ft | 467 kts | 86° |
| 2026-05-05 02:13 | 37.33330 | -117.96321 | 30743 ft | 471 kts | 86° |
| 2026-05-05 02:14 | 37.33914 | -117.88083 | 30747 ft | 475 kts | 86° |
| 2026-05-05 02:14 | 37.34497 | -117.79786 | 30742 ft | 478 kts | 86° |
| 2026-05-05 02:15 | 37.35077 | -117.71448 | 30734 ft | 478 kts | 86° |
| 2026-05-05 02:15 | 37.35647 | -117.63134 | 30732 ft | 476 kts | 87° |
| 2026-05-05 02:16 | 37.36210 | -117.54867 | 30732 ft | 473 kts | 87° |
| 2026-05-05 02:16 | 37.36763 | -117.46687 | 30726 ft | 471 kts | 87° |
| 2026-05-05 02:17 | 37.37312 | -117.38475 | 30739 ft | 473 kts | 88° |
| 2026-05-05 02:17 | 37.37671 | -117.30216 | 30730 ft | 472 kts | 99° |
| 2026-05-05 02:17 | 37.36916 | -117.26243 | 30756 ft | 465 kts | 115° |
| 2026-05-05 02:18 | 37.35438 | -117.22671 | 30747 ft | 458 kts | 129° |
| 2026-05-05 02:18 | 37.31252 | -117.16705 | 30722 ft | 456 kts | 139° |
| 2026-05-05 02:19 | 37.26929 | -117.10856 | 30735 ft | 457 kts | 138° |
| 2026-05-05 02:19 | 37.22641 | -117.04937 | 30732 ft | 459 kts | 138° |
| 2026-05-05 02:20 | 37.18389 | -116.99014 | 30742 ft | 459 kts | 139° |
| 2026-05-05 02:20 | 37.14113 | -116.93066 | 30733 ft | 459 kts | 139° |
| 2026-05-05 02:21 | 37.09798 | -116.87178 | 30727 ft | 454 kts | 144° |
| 2026-05-05 02:21 | 37.04781 | -116.82620 | 30730 ft | 443 kts | 154° |
| 2026-05-05 02:22 | 37.00248 | -116.78916 | 30732 ft | 442 kts | 154° |
| 2026-05-05 02:22 | 36.95148 | -116.74665 | 30737 ft | 442 kts | 154° |
| 2026-05-05 02:23 | 36.90056 | -116.70334 | 30742 ft | 441 kts | 153° |
| 2026-05-05 02:23 | 36.87552 | -116.68187 | 30518 ft | 435 kts | 154° |
| 2026-05-05 02:23 | 36.85114 | -116.66104 | 30208 ft | 425 kts | 154° |
| 2026-05-05 02:23 | 36.82661 | -116.64018 | 29801 ft | 418 kts | 154° |
| 2026-05-05 02:24 | 36.80280 | -116.61986 | 29332 ft | 412 kts | 153° |
| 2026-05-05 02:24 | 36.77962 | -116.60001 | 28920 ft | 406 kts | 154° |
| 2026-05-05 02:24 | 36.75647 | -116.58026 | 28478 ft | 401 kts | 153° |
| 2026-05-05 02:24 | 36.73358 | -116.56081 | 28012 ft | 396 kts | 153° |
| 2026-05-05 02:25 | 36.71096 | -116.54160 | 27635 ft | 390 kts | 153° |
| 2026-05-05 02:25 | 36.68867 | -116.52268 | 27216 ft | 385 kts | 154° |
| 2026-05-05 02:25 | 36.66667 | -116.50402 | 26835 ft | 381 kts | 154° |
| 2026-05-05 02:25 | 36.64529 | -116.48440 | 26431 ft | 386 kts | 144° |
| 2026-05-05 02:26 | 36.62694 | -116.46009 | 26127 ft | 387 kts | 139° |
| 2026-05-05 02:26 | 36.60926 | -116.43440 | 25737 ft | 397 kts | 137° |
| 2026-05-05 02:26 | 36.59116 | -116.40782 | 25331 ft | 405 kts | 137° |
| 2026-05-05 02:26 | 36.57298 | -116.38128 | 24916 ft | 401 kts | 137° |
| 2026-05-05 02:27 | 36.55479 | -116.35506 | 24503 ft | 396 kts | 137° |
| 2026-05-05 02:27 | 36.53677 | -116.32938 | 24096 ft | 392 kts | 137° |
| 2026-05-05 02:27 | 36.51883 | -116.30399 | 23681 ft | 388 kts | 139° |
| 2026-05-05 02:27 | 36.50104 | -116.27893 | 23268 ft | 385 kts | 139° |
| 2026-05-05 02:28 | 36.48337 | -116.25406 | 22777 ft | 381 kts | 138° |
| 2026-05-05 02:28 | 36.46616 | -116.22985 | 22387 ft | 376 kts | 138° |
| 2026-05-05 02:28 | 36.44893 | -116.20561 | 22019 ft | 371 kts | 138° |
| 2026-05-05 02:28 | 36.43198 | -116.18177 | 21687 ft | 365 kts | 138° |
| 2026-05-05 02:29 | 36.41524 | -116.15827 | 21289 ft | 361 kts | 137° |
| 2026-05-05 02:29 | 36.39866 | -116.13501 | 20939 ft | 358 kts | 137° |
| 2026-05-05 02:29 | 36.38224 | -116.11200 | 20570 ft | 355 kts | 137° |
| 2026-05-05 02:29 | 36.36593 | -116.08914 | 20184 ft | 352 kts | 137° |
| 2026-05-05 02:30 | 36.34967 | -116.06638 | 19792 ft | 351 kts | 137° |
| 2026-05-05 02:30 | 36.33349 | -116.04420 | 19359 ft | 345 kts | 144° |
| 2026-05-05 02:30 | 36.31485 | -116.02596 | 19085 ft | 345 kts | 138° |
| 2026-05-05 02:30 | 36.30089 | -116.00107 | 18859 ft | 363 kts | 128° |
| 2026-05-05 02:31 | 36.28592 | -115.97617 | 18677 ft | 356 kts | 135° |
| 2026-05-05 02:31 | 36.26986 | -115.95355 | 18522 ft | 344 kts | 137° |
| 2026-05-05 02:31 | 36.25403 | -115.93195 | 18372 ft | 335 kts | 138° |
| 2026-05-05 02:31 | 36.23881 | -115.91037 | 18082 ft | 333 kts | 135° |
| 2026-05-05 02:32 | 36.22456 | -115.88784 | 17764 ft | 331 kts | 133° |
| 2026-05-05 02:32 | 36.21066 | -115.86530 | 17437 ft | 328 kts | 133° |
| 2026-05-05 02:32 | 36.19680 | -115.84290 | 17107 ft | 326 kts | 133° |
| 2026-05-05 02:32 | 36.18298 | -115.82079 | 16786 ft | 323 kts | 134° |
| 2026-05-05 02:33 | 36.16923 | -115.79895 | 16473 ft | 320 kts | 134° |
| 2026-05-05 02:33 | 36.15559 | -115.77737 | 16248 ft | 315 kts | 133° |
| 2026-05-05 02:33 | 36.14221 | -115.75610 | 15987 ft | 311 kts | 132° |
| 2026-05-05 02:33 | 36.13172 | -115.73250 | 15696 ft | 317 kts | 116° |
| 2026-05-05 02:34 | 36.12402 | -115.70711 | 15409 ft | 315 kts | 114° |
| 2026-05-05 02:34 | 36.11671 | -115.68197 | 15112 ft | 314 kts | 114° |
| 2026-05-05 02:34 | 36.10927 | -115.65660 | 14804 ft | 313 kts | 115° |
| 2026-05-05 02:34 | 36.10175 | -115.63140 | 14486 ft | 311 kts | 116° |
| 2026-05-05 02:35 | 36.09420 | -115.60638 | 14188 ft | 310 kts | 115° |
| 2026-05-05 02:35 | 36.08661 | -115.58148 | 13902 ft | 309 kts | 115° |
| 2026-05-05 02:35 | 36.07901 | -115.55675 | 13602 ft | 308 kts | 117° |
| 2026-05-05 02:35 | 36.07140 | -115.53205 | 13269 ft | 306 kts | 114° |
| 2026-05-05 02:36 | 36.06383 | -115.50749 | 12942 ft | 305 kts | 116° |
| 2026-05-05 02:36 | 36.05626 | -115.48304 | 12636 ft | 303 kts | 116° |
| 2026-05-05 02:36 | 36.04877 | -115.45885 | 12332 ft | 302 kts | 116° |
| 2026-05-05 02:36 | 36.04132 | -115.43479 | 12034 ft | 299 kts | 116° |
| 2026-05-05 02:37 | 36.03385 | -115.41080 | 11737 ft | 299 kts | 115° |
| 2026-05-05 02:37 | 36.02644 | -115.38698 | 11423 ft | 300 kts | 115° |
| 2026-05-05 02:37 | 36.01899 | -115.36298 | 11124 ft | 299 kts | 115° |
| 2026-05-05 02:37 | 36.01434 | -115.33783 | 10887 ft | 302 kts | 99° |
| 2026-05-05 02:38 | 36.01325 | -115.31209 | 10686 ft | 301 kts | 97° |
| 2026-05-05 02:38 | 36.01235 | -115.28635 | 10476 ft | 299 kts | 97° |
| 2026-05-05 02:38 | 36.01136 | -115.26072 | 10265 ft | 296 kts | 98° |
| 2026-05-05 02:38 | 36.01032 | -115.23611 | 10069 ft | 290 kts | 98° |
| 2026-05-05 02:39 | 36.00920 | -115.21164 | 9863 ft | 285 kts | 98° |
| 2026-05-05 02:39 | 36.00843 | -115.19555 | 9732 ft | 281 kts | 98° |
| 2026-05-05 02:39 | 36.00726 | -115.17169 | 9525 ft | 276 kts | 98° |
| 2026-05-05 02:39 | 36.00610 | -115.14853 | 9327 ft | 271 kts | 98° |
| 2026-05-05 02:40 | 36.00460 | -115.11845 | 9060 ft | 258 kts | 98° |
| 2026-05-05 02:40 | 36.00350 | -115.09659 | 8856 ft | 254 kts | 98° |
| 2026-05-05 02:40 | 36.00274 | -115.08194 | 8707 ft | 253 kts | 98° |
| 2026-05-05 02:40 | 36.00163 | -115.06034 | 8481 ft | 250 kts | 98° |
| 2026-05-05 02:41 | 36.00054 | -115.03925 | 8260 ft | 248 kts | 98° |
| 2026-05-05 02:41 | 35.99945 | -115.01806 | 8044 ft | 248 kts | 98° |
| 2026-05-05 02:41 | 35.99774 | -114.99718 | 7949 ft | 237 kts | 101° |
| 2026-05-05 02:41 | 35.99558 | -114.97711 | 7966 ft | 237 kts | 102° |
| 2026-05-05 02:42 | 35.99485 | -114.95641 | 7931 ft | 245 kts | 89° |
| 2026-05-05 02:42 | 35.99735 | -114.93585 | 8168 ft | 238 kts | 77° |
| 2026-05-05 02:42 | 36.00636 | -114.91712 | 7640 ft | 276 kts | 41° |
| 2026-05-05 02:42 | 36.02308 | -114.90483 | 7041 ft | 284 kts | 17° |
| 2026-05-05 02:43 | 36.04223 | -114.90315 | 6461 ft | 278 kts | 346° |
| 2026-05-05 02:43 | 36.05998 | -114.91116 | 5781 ft | 269 kts | 325° |
| 2026-05-05 02:43 | 36.07301 | -114.92625 | 5240 ft | 248 kts | 292° |
| 2026-05-05 02:43 | 36.07562 | -114.94555 | 5089 ft | 215 kts | 263° |
| 2026-05-05 02:44 | 36.07481 | -114.96320 | 4762 ft | 204 kts | 264° |
| 2026-05-05 02:44 | 36.07438 | -114.98063 | 4352 ft | 200 kts | 265° |
| 2026-05-05 02:44 | 36.07416 | -114.99740 | 4069 ft | 189 kts | 266° |
| 2026-05-05 02:44 | 36.07405 | -115.01318 | 3881 ft | 178 kts | 264° |
| 2026-05-05 02:45 | 36.07390 | -115.02777 | 3804 ft | 162 kts | 265° |
| 2026-05-05 02:45 | 36.07381 | -115.04153 | 3733 ft | 161 kts | 266° |
| 2026-05-05 02:45 | 36.07446 | -115.05581 | 3268 ft | 169 kts | 269° |
| 2026-05-05 02:45 | 36.07536 | -115.07020 | 2947 ft | 166 kts | 263° |
| 2026-05-05 02:46 | 36.07410 | -115.08387 | 2759 ft | 161 kts | 258° |
| 2026-05-05 02:46 | 36.07328 | -115.09869 | 2520 ft | 176 kts | 262° |
| 2026-05-05 02:46 | 36.07404 | -115.11299 | 2343 ft | 157 kts | 264° |
| 2026-05-05 02:46 | 36.07386 | -115.12589 | 2098 ft | 151 kts | 263° |
| 2026-05-05 02:47 | 36.07357 | -115.13892 | 2080 ft | 145 kts | 266° |
| 2026-05-05 02:47 | 36.07365 | -115.14897 | 2095 ft | 82 kts | 270° |
| 2026-05-05 02:47 | 36.07372 | -115.15243 | 2101 ft | 29 kts | 280° |
| 2026-05-05 02:47 | 36.07444 | -115.15461 | 2106 ft | 27 kts | 299° |
| 2026-05-05 02:48 | 36.07551 | -115.15640 | 2112 ft | 20 kts | 314° |
| 2026-05-05 02:48 | 36.07657 | -115.15771 | 2120 ft | 22 kts | 315° |
| 2026-05-05 02:48 | 36.07775 | -115.15829 | 2113 ft | 18 kts | 1° |
| 2026-05-05 02:48 | 36.07908 | -115.15827 | 2108 ft | 20 kts | 0° |
| 2026-05-05 02:49 | 36.08046 | -115.15826 | 2107 ft | 20 kts | 358° |
| 2026-05-05 02:49 | 36.08152 | -115.15818 | 2106 ft | 11 kts | 34° |
| 2026-05-05 02:49 | 36.08164 | -115.15721 | 2103 ft | 13 kts | 90° |
| 2026-05-05 02:49 | 36.08164 | -115.15594 | 2099 ft | 17 kts | 89° |
| 2026-05-05 02:50 | 36.08146 | -115.15434 | 2097 ft | 20 kts | 119° |
| 2026-05-05 02:50 | 36.08104 | -115.15278 | 2096 ft | 14 kts | 103° |
| 2026-05-05 02:50 | 36.08093 | -115.15159 | 2096 ft | 14 kts | 73° |
| 2026-05-05 02:50 | 36.08146 | -115.15066 | 2096 ft | 13 kts | 46° |
| 2026-05-05 02:51 | 36.08199 | -115.15002 | 2096 ft | 10 kts | 44° |
| 2026-05-05 02:51 | 36.08223 | -115.14978 | 2096 ft | 2 kts | 14° |
| 2026-05-05 02:51 | 36.08233 | -115.14990 | 2096 ft | 2 kts | 309° |
| 2026-05-05 02:51 | 36.08242 | -115.15007 | 2096 ft | 2 kts | 303° |
| 2026-05-05 02:52 | 36.08250 | -115.15024 | 2096 ft | 2 kts | 302° |
| 2026-05-05 02:52 | 36.08254 | -115.15031 | 2096 ft | 0 kts | 302° |